< < Back
Terminal Aerodrome Forecast


Current Version              Previous Versions:   1  2  3  4  5  6  7  8  9  

Terminal Aerodrome Forecast

769
FTUS44 KMRX 171725
TAFTYS
TAF
KTYS 171725Z 1718/1818 VRB04KT P6SM SCT035 SCT250
     FM180100 VRB02KT P6SM SCT150 BKN250
     FM181400 03003KT P6SM BKN100=

Latest METAR

249
SAUS80 KWBC 181700
MTRTYS
METAR KTYS 181653Z 01005KT 10SM FEW032 FEW150 BKN250 24/11 A3001 RMK AO2
SLP154 T02440111


USA.gov is the U.S. government's official web portal to all federal, state and local government web resources and services.